sensor_id;sensor_type;location;lat;lon;timestamp;pressure;altitude;pressure_sealevel;temperature;humidity
60345;BME280;46188;52.324;8.032;2023-04-10T19:16:14;99909.06;;;11.68;93.23
60345;BME280;46188;52.324;8.032;2023-04-10T19:18:43;99889.69;;;11.78;94.83
60345;BME280;46188;52.324;8.032;2023-04-10T19:21:08;99888.78;;;11.84;96.39
60345;BME280;46188;52.324;8.032;2023-04-10T19:23:33;99887.00;;;11.88;96.85
60345;BME280;46188;52.324;8.032;2023-04-10T19:25:59;99890.56;;;11.79;100.00
60345;BME280;46188;52.324;8.032;2023-04-10T19:28:24;99887.03;;;11.77;100.00
60345;BME280;46188;52.324;8.032;2023-04-10T19:30:50;99882.63;;;11.77;100.00
60345;BME280;46188;52.324;8.032;2023-04-10T19:33:16;99875.56;;;11.79;100.00
60345;BME280;46188;52.324;8.032;2023-04-10T19:35:41;99873.84;;;11.75;100.00
60345;BME280;46188;52.324;8.032;2023-04-10T19:38:06;99871.22;;;11.72;100.00
60345;BME280;46188;52.324;8.032;2023-04-10T19:40:31;99865.06;;;11.67;100.00
60345;BME280;46188;52.324;8.032;2023-04-10T19:42:57;99862.44;;;11.66;100.00
60345;BME280;46188;52.324;8.032;2023-04-10T19:45:26;99847.47;;;11.60;100.00
60345;BME280;46188;52.324;8.032;2023-04-10T19:47:53;99858.06;;;11.54;100.00
60345;BME280;46188;52.324;8.032;2023-04-10T19:50:18;99851.03;;;11.45;100.00
60345;BME280;46188;52.324;8.032;2023-04-10T19:52:43;99851.94;;;11.44;100.00
60345;BME280;46188;52.324;8.032;2023-04-10T19:55:09;99836.13;;;11.35;100.00
60345;BME280;46188;52.324;8.032;2023-04-10T19:57:34;99837.88;;;11.33;100.00
60345;BME280;46188;52.324;8.032;2023-04-10T20:00:00;99827.34;;;11.34;100.00
60345;BME280;46188;52.324;8.032;2023-04-10T20:02:25;99829.97;;;11.34;100.00
60345;BME280;46188;52.324;8.032;2023-04-10T20:04:50;99830.84;;;11.30;100.00
60345;BME280;46188;52.324;8.032;2023-04-10T20:07:16;99833.50;;;11.27;100.00
60345;BME280;46188;52.324;8.032;2023-04-10T20:09:41;99836.16;;;11.19;100.00
60345;BME280;46188;52.324;8.032;2023-04-10T20:12:06;99841.44;;;11.13;100.00
60345;BME280;46188;52.324;8.032;2023-04-10T20:14:32;99825.59;;;11.08;100.00
60345;BME280;46188;52.324;8.032;2023-04-10T20:16:58;99823.88;;;11.11;100.00
60345;BME280;46188;52.324;8.032;2023-04-10T20:19:23;99824.75;;;11.16;100.00
60345;BME280;46188;52.324;8.032;2023-04-10T20:21:48;99841.44;;;11.13;100.00
60345;BME280;46188;52.324;8.032;2023-04-10T20:24:13;99844.06;;;11.07;100.00
60345;BME280;46188;52.324;8.032;2023-04-10T20:26:39;99852.00;;;10.99;100.00
60345;BME280;46188;52.324;8.032;2023-04-10T20:29:04;99873.09;;;10.99;100.00
60345;BME280;46188;52.324;8.032;2023-04-10T20:31:29;99856.41;;;10.82;100.00
60345;BME280;46188;52.324;8.032;2023-04-10T20:33:55;99855.53;;;10.64;100.00
60345;BME280;46188;52.324;8.032;2023-04-10T20:36:20;99840.56;;;10.63;100.00
60345;BME280;46188;52.324;8.032;2023-04-10T20:38:46;99832.69;;;10.65;100.00
60345;BME280;46188;52.324;8.032;2023-04-10T20:41:11;99837.97;;;10.74;100.00
60345;BME280;46188;52.324;8.032;2023-04-10T20:43:36;99824.78;;;10.74;100.00
60345;BME280;46188;52.324;8.032;2023-04-10T20:46:05;99801.91;;;10.68;100.00
60345;BME280;46188;52.324;8.032;2023-04-10T20:48:32;99797.53;;;10.72;100.00
60345;BME280;46188;52.324;8.032;2023-04-10T20:50:57;99782.56;;;10.77;100.00
60345;BME280;46188;52.324;8.032;2023-04-10T20:53:22;99794.88;;;10.74;100.00
60345;BME280;46188;52.324;8.032;2023-04-10T20:55:50;99785.22;;;10.71;100.00
60345;BME280;46188;52.324;8.032;2023-04-10T20:58:16;99781.69;;;10.70;100.00
60345;BME280;46188;52.324;8.032;2023-04-10T21:00:41;99778.19;;;10.68;100.00
60345;BME280;46188;52.324;8.032;2023-04-10T21:03:06;99784.38;;;10.66;100.00
60345;BME280;46188;52.324;8.032;2023-04-10T21:05:31;99779.94;;;10.62;100.00
60345;BME280;46188;52.324;8.032;2023-04-10T21:07:57;99770.31;;;10.59;100.00
60345;BME280;46188;52.324;8.032;2023-04-10T21:10:22;99778.22;;;10.58;100.00
60345;BME280;46188;52.324;8.032;2023-04-10T21:12:47;99767.66;;;10.51;100.00
60345;BME280;46188;52.324;8.032;2023-04-10T21:15:12;99769.44;;;10.52;100.00
60345;BME280;46188;52.324;8.032;2023-04-10T21:17:38;99772.94;;;10.56;100.00
60345;BME280;46188;52.324;8.032;2023-04-10T21:20:03;99775.56;;;10.53;100.00
60345;BME280;46188;52.324;8.032;2023-04-10T21:22:28;99756.25;;;10.51;100.00
60345;BME280;46188;52.324;8.032;2023-04-10T21:24:54;99748.34;;;10.48;100.00
60345;BME280;46188;52.324;8.032;2023-04-10T21:27:19;99746.59;;;10.51;100.00
60345;BME280;46188;52.324;8.032;2023-04-10T21:29:45;99747.44;;;10.52;100.00
60345;BME280;46188;52.324;8.032;2023-04-10T21:32:10;99755.34;;;10.52;100.00
60345;BME280;46188;52.324;8.032;2023-04-10T21:34:35;99760.63;;;10.50;100.00
60345;BME280;46188;52.324;8.032;2023-04-10T21:37:01;99777.31;;;10.54;100.00
60345;BME280;46188;52.324;8.032;2023-04-10T21:39:28;99772.94;;;10.48;100.00
60345;BME280;46188;52.324;8.032;2023-04-10T21:41:53;99769.44;;;10.48;100.00
60345;BME280;46188;52.324;8.032;2023-04-10T21:44:18;99787.00;;;10.38;100.00
60345;BME280;46188;52.324;8.032;2023-04-10T21:46:43;99781.66;;;10.30;100.00
60345;BME280;46188;52.324;8.032;2023-04-10T21:49:09;99759.72;;;10.28;100.00
60345;BME280;46188;52.324;8.032;2023-04-10T21:51:34;99750.03;;;10.26;100.00
60345;BME280;46188;52.324;8.032;2023-04-10T21:54:00;99725.47;;;10.19;100.00
60345;BME280;46188;52.324;8.032;2023-04-10T21:56:25;99721.09;;;10.18;100.00
60345;BME280;46188;52.324;8.032;2023-04-10T21:58:50;99719.31;;;10.19;100.00
60345;BME280;46188;52.324;8.032;2023-04-10T22:01:16;99721.09;;;10.21;100.00
60345;BME280;46188;52.324;8.032;2023-04-10T22:03:42;99712.28;;;10.19;100.00
60345;BME280;46188;52.324;8.032;2023-04-10T22:06:07;99711.41;;;10.15;100.00
60345;BME280;46188;52.324;8.032;2023-04-10T22:08:33;99700.03;;;10.20;100.00
60345;BME280;46188;52.324;8.032;2023-04-10T22:10:58;99686.84;;;10.21;100.00
60345;BME280;46188;52.324;8.032;2023-04-10T22:13:23;99680.69;;;10.19;100.00
60345;BME280;46188;52.324;8.032;2023-04-10T22:15:48;99683.31;;;10.18;100.00
60345;BME280;46188;52.324;8.032;2023-04-10T22:18:14;99685.06;;;10.15;100.00
60345;BME280;46188;52.324;8.032;2023-04-10T22:20:39;99704.41;;;10.14;100.00
60345;BME280;46188;52.324;8.032;2023-04-10T22:23:04;99700.00;;;10.15;100.00
60345;BME280;46188;52.324;8.032;2023-04-10T22:25:30;99699.16;;;10.14;100.00
60345;BME280;46188;52.324;8.032;2023-04-10T22:27:55;99687.72;;;10.12;100.00
60345;BME280;46188;52.324;8.032;2023-04-10T22:30:22;99683.34;;;10.11;100.00
60345;BME280;46188;52.324;8.032;2023-04-10T22:32:47;99658.72;;;10.08;100.00
60345;BME280;46188;52.324;8.032;2023-04-10T22:35:12;99657.88;;;10.09;100.00
60345;BME280;46188;52.324;8.032;2023-04-10T22:37:37;99644.69;;;10.07;100.00
60345;BME280;46188;52.324;8.032;2023-04-10T22:40:03;99652.59;;;10.01;100.00
60345;BME280;46188;52.324;8.032;2023-04-10T22:42:29;99659.63;;;9.97;100.00
60345;BME280;46188;52.324;8.032;2023-04-10T22:44:54;99649.06;;;9.94;100.00
60345;BME280;46188;52.324;8.032;2023-04-10T22:47:19;99657.88;;;9.89;100.00
60345;BME280;46188;52.324;8.032;2023-04-10T22:49:44;99675.41;;;9.82;100.00
60345;BME280;46188;52.324;8.032;2023-04-10T22:52:13;99695.59;;;9.89;100.00
60345;BME280;46188;52.324;8.032;2023-04-10T22:54:38;99677.16;;;9.91;100.00
60345;BME280;46188;52.324;8.032;2023-04-10T22:57:03;99675.41;;;9.84;100.00
60345;BME280;46188;52.324;8.032;2023-04-10T22:59:28;99669.25;;;9.78;100.00
60345;BME280;46188;52.324;8.032;2023-04-10T23:01:53;99676.28;;;9.76;100.00
60345;BME280;46188;52.324;8.032;2023-04-10T23:04:19;99681.53;;;9.81;100.00
60345;BME280;46188;52.324;8.032;2023-04-10T23:06:44;99672.78;;;9.82;100.00
60345;BME280;46188;52.324;8.032;2023-04-10T23:09:09;99679.78;;;9.75;100.00
60345;BME280;46188;52.324;8.032;2023-04-10T23:11:34;99673.63;;;9.66;100.00
60345;BME280;46188;52.324;8.032;2023-04-10T23:14:00;99674.50;;;9.65;100.00
60345;BME280;46188;52.324;8.032;2023-04-10T23:16:26;99656.09;;;9.60;100.00
60345;BME280;46188;52.324;8.032;2023-04-10T23:18:51;99661.34;;;9.60;100.00
60345;BME280;46188;52.324;8.032;2023-04-10T23:21:16;99646.41;;;9.56;100.00
60345;BME280;46188;52.324;8.032;2023-04-10T23:23:41;99637.66;;;9.57;100.00
60345;BME280;46188;52.324;8.032;2023-04-10T23:26:07;99639.41;;;9.53;100.00
60345;BME280;46188;52.324;8.032;2023-04-10T23:28:32;99641.13;;;9.48;100.00
60345;BME280;46188;52.324;8.032;2023-04-10T23:30:57;99634.13;;;9.49;100.00
60345;BME280;46188;52.324;8.032;2023-04-10T23:33:22;99628.88;;;9.50;100.00
60345;BME280;46188;52.324;8.032;2023-04-10T23:35:48;99636.78;;;9.50;100.00
60345;BME280;46188;52.324;8.032;2023-04-10T23:38:13;99635.00;;;9.52;100.00
60345;BME280;46188;52.324;8.032;2023-04-10T23:40:38;99638.50;;;9.48;100.00
60345;BME280;46188;52.324;8.032;2023-04-10T23:43:04;99625.34;;;9.48;100.00
60345;BME280;46188;52.324;8.032;2023-04-10T23:45:29;99616.56;;;9.46;100.00
60345;BME280;46188;52.324;8.032;2023-04-10T23:47:54;99614.84;;;9.42;100.00
60345;BME280;46188;52.324;8.032;2023-04-10T23:50:19;99602.53;;;9.36;100.00
60345;BME280;46188;52.324;8.032;2023-04-10T23:52:49;99594.66;;;9.44;100.00
60345;BME280;46188;52.324;8.032;2023-04-10T23:55:14;99599.91;;;9.42;100.00
60345;BME280;46188;52.324;8.032;2023-04-10T23:57:40;99606.94;;;9.39;100.00
